A- A+ FrançaisEnglishEspañol中国

le plus proche LFGX Champagnole-Crotenay LFBT Tarbes-Lourdes-PyrénéesLFPB Paris-Le-Bourget LFSB Basle-Mulhouse

manche à air

La météo aéronautique pour les pilotes, la préparation du vol avec les METAR (METeorological Aerodrome Report, message d'observation des conditions météorologiques pour l'aviation) et Les TAF (Terminal Aerodrome Forecast : message de prévision à court terme des conditions météorologiques pour l'aviation). Et les autres ressources comme les VAC (Visual Approch Chart) et les NOTAM (Notice To Airman) pour préprer les vols.

Aéroport Aarhus Tirstrup (Danemark) / OACI EKAH/ IATA AAR

L'altitude de l'aéroport Aarhus Tirstrup est de 25 m=82 ft. Il est situé à proximité de Aarhus (Danemark). La météo générale à 5 jours est disponible pour Kolind situé à 7.1 km.

METAR de l'aéroport Aarhus Tirstrup - EKAH

EKAH 291050Z AUTO 24007KT 180V270 9999NDV BKN015/// 15/12 Q0997

Décodage du METAR de l'aéroport Aarhus Tirstrup (DK)

METAR émis par EKAH le dimanche 29 septembre 2019 à 10:50 heure TU. C'est un METAR généré automatiquement. Attention ce METAR est obsolète car il a été émis il y a 12 heure et 58 minutes.

La visibilité est de supérieure à 10 km=supérieure à 6.2 sm.

La température est de 15°C=59 °F et le point rosée est de 12°C=54 °F . Ce qui correspond à 82% d'humidité relative.

Le QNH est de 997 hPa=29.44 inHg

Vent de 7 kt=13 km/h, orienté à 240°.

Nuages : Couverture nuageuse fragmentée à 1500 ft=460 mètres.

TAF de l'aéroport Aarhus Tirstrup - EKAH

EKAH 291007Z 2910/3006 23005KT 9999 BKN020 TEMPO 2910/2915 BKN012 BECMG 2915/2917 RADZ BKN012 TEMPO 2917/2924 4000 -RADZ BR BKN008 BECMG 3000/3003 NSW SCT030

EKAH 291007Z 2910/3006 23005KT 9999 couverture nuageuse fragmentée à 020 temporairement 2910/2915 couverture nuageuse fragmentée à 012 devenant 2915/2917 pluie DZ couverture nuageuse fragmentée à 012 temporairement 2917/2924 4000 faible RADZ brume couverture nuageuse fragmentée à 008 devenant 3000/3003 NSW nuages épars à 030

Aéroport à proximité de Aarhus Tirstrup

Météo générale à 5 jours à Kolind (7.1 km)EKRD Aéroport Randers (43 km)EKEL Aéroport Endelave (65 km)EKAT Aéroport Anholt (73 km)EKVB Aéroport Viborg (76 km)EKHK Aéroport Holbaek (88 km)EKKA Aéroport Karup MIL (92 km)

Vue aérienne de l'aéroport Aarhus Tirstrup

NOTAM de l'aéroport Aarhus Tirstrup

Les NOTAM sont fournis sans aucune garantie de leur actualité. Le pilote est le seul responsable de la vérification de sa validité avant de l'utiliser opérationnellement pour préparer un vol ou l'utiliser lors de sa navigation.

Pas de NOTAM

Sources des données